Time;durP1;ratioP1;P1;durP2;ratioP2;P2;SDS_P1;SDS_P2;PMS_P1;PMS_P2;Temp;Humidity;BMP_temperature;BMP_pressure;BME280_temperature;BME280_humidity;BME280_pressure;Samples;Min_cycle;Max_cycle;Signal;HPM_P1;HPM_P2
2022/06/07 14:03:45;;;;;;;3.80;3.40;;;;;;;23.88;55.77;99482.44;214482;1309;637063;-64
2022/06/07 14:08:52;;;;;;;4.20;3.80;;;;;;;23.61;56.09;99504.68;213562;1288;139495;-65
2022/06/07 14:13:58;;;;;;;3.60;3.30;;;;;;;23.46;56.41;99507.70;213329;1287;305230;-64
2022/06/07 14:19:07;;;;;;;5.10;4.30;;;;;;;23.33;56.42;99508.47;212590;1286;140420;-65
2022/06/07 14:24:19;;;;;;;5.90;4.10;;;;;;;23.25;56.88;99506.04;212951;1283;139924;-64
2022/06/07 14:29:26;;;;;;;4.30;4.00;;;;;;;23.09;57.17;99504.45;213612;1283;139690;-63
2022/06/07 14:34:32;;;;;;;8.20;4.80;;;;;;;23.00;57.32;99494.85;212829;1283;141865;-66
2022/06/07 14:39:40;;;;;;;9.20;3.80;;;;;;;22.84;57.46;99481.84;212755;1283;140068;-65
2022/06/07 14:44:47;;;;;;;6.60;3.30;;;;;;;22.62;57.59;99472.21;211450;1283;142935;-63
2022/06/07 14:49:55;;;;;;;3.30;3.00;;;;;;;22.48;58.22;99471.20;212717;1283;141329;-65
2022/06/07 14:55:12;;;;;;;3.70;2.70;;;;;;;22.41;57.97;99457.55;212467;1283;139957;-63
2022/06/07 15:00:20;;;;;;;9.00;3.00;;;;;;;22.28;57.83;99454.48;213133;1283;139747;-64
2022/06/07 15:05:30;;;;;;;2.80;2.60;;;;;;;22.19;57.80;99448.19;212972;1283;140183;-64
2022/06/07 15:10:39;;;;;;;2.70;2.60;;;;;;;22.03;57.79;99445.63;212945;1283;141611;-65
2022/06/07 15:15:45;;;;;;;2.90;2.80;;;;;;;21.88;58.53;99449.55;212933;1284;140584;-64
2022/06/07 15:20:50;;;;;;;;;;;;;;;21.73;59.08;99452.89;212827;1284;140125;-64
2022/06/07 15:25:57;;;;;;;2.30;2.10;;;;;;;21.53;59.29;99451.77;213465;1284;125480;-66
2022/06/07 15:31:01;;;;;;;3.60;3.30;;;;;;;21.43;59.34;99450.30;212617;1283;139742;-65
2022/06/07 15:36:09;;;;;;;3.20;3.00;;;;;;;21.40;59.74;99447.71;212449;1283;139413;-65
2022/06/07 15:46:40;;;;;;;6.10;3.50;;;;;;;21.41;59.98;99444.30;214717;1282;139883;-63
2022/06/07 15:51:44;;;;;;;5.20;4.30;;;;;;;21.39;60.04;99443.67;214836;1281;138880;-64
2022/06/07 15:56:48;;;;;;;7.20;5.20;;;;;;;21.33;60.19;99445.30;214726;1283;139153;-62
2022/06/07 16:01:52;;;;;;;10.30;6.40;;;;;;;21.20;60.13;99449.42;214224;1283;140552;-65
2022/06/07 16:06:56;;;;;;;10.70;7.10;;;;;;;21.08;60.13;99455.84;215413;1280;139477;-65
2022/06/07 16:12:01;;;;;;;10.80;6.80;;;;;;;20.99;60.20;99453.00;214473;1279;139397;-65
2022/06/07 16:17:05;;;;;;;12.30;7.10;;;;;;;20.79;60.52;99465.46;213254;1279;139130;-65
2022/06/07 16:22:10;;;;;;;12.80;8.20;;;;;;;20.61;61.00;99471.33;213092;1280;140355;-65
2022/06/07 16:38:05;;;;;;;9.00;6.00;;;;;;;20.27;62.80;99483.59;212999;1281;140269;-65
2022/06/07 16:48:41;;;;;;;10.30;8.30;;;;;;;19.96;64.12;99502.77;213239;1281;232420;-65
2022/06/07 16:53:49;;;;;;;7.60;6.20;;;;;;;19.80;64.72;99501.21;213098;1279;140636;-64
2022/06/07 16:58:57;;;;;;;6.70;6.10;;;;;;;19.70;65.42;99497.40;213256;1277;139864;-64
2022/06/07 17:04:04;;;;;;;10.50;7.40;;;;;;;19.66;66.02;99481.52;213182;1277;139694;-64
2022/06/07 17:09:12;;;;;;;14.50;6.80;;;;;;;19.60;66.29;99479.10;213220;1277;139313;-64
2022/06/07 17:14:19;;;;;;;8.40;7.70;;;;;;;19.49;66.82;99476.11;212877;1277;142336;-62
2022/06/07 17:19:26;;;;;;;7.70;7.00;;;;;;;19.43;67.19;99481.52;212866;1277;142212;-65
2022/06/07 17:24:35;;;;;;;6.40;5.80;;;;;;;19.42;67.79;99474.50;213141;1277;139812;-61
2022/06/07 17:29:40;;;;;;;7.80;7.20;;;;;;;19.37;67.89;99468.38;213031;1277;139349;-63
2022/06/07 17:34:45;;;;;;;5.80;5.40;;;;;;;19.39;68.20;99462.51;213070;1278;140344;-63
2022/06/07 17:39:49;;;;;;;6.80;6.20;;;;;;;19.41;68.44;99469.02;214476;1277;139477;-62
2022/06/07 17:44:57;;;;;;;6.70;6.00;;;;;;;19.37;68.45;99466.00;215679;1277;139824;-63
2022/06/07 17:50:03;;;;;;;7.00;6.50;;;;;;;19.28;68.68;99466.97;215560;1278;140746;-63
2022/06/07 17:55:09;;;;;;;6.70;6.10;;;;;;;19.26;68.87;99477.02;215124;1280;141430;-64
2022/06/07 18:00:15;;;;;;;7.20;6.60;;;;;;;19.17;68.98;99483.77;215469;1278;141270;-63
2022/06/07 18:05:23;;;;;;;10.10;6.10;;;;;;;19.21;69.26;99490.31;215442;1277;140753;-63
2022/06/07 18:10:29;;;;;;;8.10;7.30;;;;;;;19.18;69.54;99492.77;215170;1277;140445;-63
2022/06/07 18:15:37;;;;;;;6.20;5.70;;;;;;;19.16;69.82;99496.17;213844;1277;141588;-63
2022/06/07 18:20:45;;;;;;;7.90;7.30;;;;;;;19.08;69.91;99496.24;213285;1277;141502;-63
2022/06/07 18:25:53;;;;;;;6.50;5.90;;;;;;;19.05;70.42;99488.63;213373;1277;139643;-63
2022/06/07 18:30:59;;;;;;;7.80;7.10;;;;;;;19.00;70.66;99488.80;213111;1277;140875;-63
2022/06/07 18:36:05;;;;;;;9.50;8.70;;;;;;;18.98;70.86;99481.45;213646;1277;142994;-63
2022/06/07 18:41:12;;;;;;;9.60;8.20;;;;;;;18.91;71.13;99476.66;213074;1277;140673;-64
2022/06/07 18:46:21;;;;;;;8.90;8.10;;;;;;;18.88;71.42;99477.80;213110;1277;141824;-62
2022/06/07 18:51:27;;;;;;;9.40;8.30;;;;;;;18.87;71.54;99478.08;213099;1277;140928;-65
2022/06/07 18:56:31;;;;;;;9.60;8.40;;;;;;;18.81;71.66;99470.17;213084;1277;141351;-64
2022/06/07 19:01:38;;;;;;;10.10;9.20;;;;;;;18.77;71.82;99468.72;213515;1277;139842;-64
2022/06/07 19:06:43;;;;;;;9.10;8.20;;;;;;;18.71;71.89;99470.11;213786;1277;140231;-65
2022/06/07 19:11:50;;;;;;;8.40;7.70;;;;;;;18.64;71.88;99476.02;213184;1276;139690;-66
2022/06/07 19:16:55;;;;;;;7.60;7.00;;;;;;;18.59;71.90;99484.99;213191;1277;139487;-65
2022/06/07 19:22:00;;;;;;;8.00;7.20;;;;;;;18.54;72.00;99491.86;213223;1277;139834;-64
2022/06/07 19:27:05;;;;;;;7.80;7.10;;;;;;;18.48;72.14;99490.63;213320;1277;142300;-62
2022/06/07 19:32:11;;;;;;;7.50;6.40;;;;;;;18.46;72.15;99487.74;213291;1277;140831;-64
2022/06/07 19:37:18;;;;;;;8.00;5.80;;;;;;;18.42;71.99;99482.03;213219;1277;142144;-63
2022/06/07 19:42:22;;;;;;;6.80;6.10;;;;;;;18.35;72.02;99478.78;213518;1277;140794;-63
2022/06/07 19:47:28;;;;;;;9.40;6.40;;;;;;;18.29;71.87;99482.78;213443;1277;140764;-64
2022/06/07 19:52:37;;;;;;;14.00;5.70;;;;;;;18.26;72.09;99482.05;215524;1275;228589;-62
2022/06/07 19:57:44;;;;;;;5.70;5.10;;;;;;;18.24;72.00;99477.93;215932;1277;140998;-64
2022/06/07 20:02:49;;;;;;;6.50;5.90;;;;;;;18.24;72.05;99475.50;215837;1275;141226;-63
2022/06/07 20:07:57;;;;;;;8.50;6.20;;;;;;;18.23;71.93;99474.27;215142;1277;164435;-62
2022/06/07 20:13:01;;;;;;;7.20;6.50;;;;;;;18.21;71.83;99471.02;215775;1277;140559;-63
2022/06/07 20:18:08;;;;;;;8.50;7.10;;;;;;;18.18;71.79;99473.85;213235;1277;140547;-65
2022/06/07 20:23:13;;;;;;;6.90;6.00;;;;;;;18.12;71.96;99470.04;213856;1277;140960;-62
2022/06/07 20:28:19;;;;;;;11.20;7.40;;;;;;;18.11;72.08;99484.23;214398;1277;141279;-62
2022/06/07 20:33:23;;;;;;;8.10;7.20;;;;;;;18.07;72.53;99491.84;213656;1277;139198;-61
2022/06/07 20:38:27;;;;;;;13.70;10.60;;;;;;;18.02;72.51;99482.70;214737;1277;139805;-64
2022/06/07 20:43:32;;;;;;;8.50;6.50;;;;;;;17.97;72.71;99467.98;213611;1277;142185;-65
2022/06/07 20:48:40;;;;;;;7.70;7.00;;;;;;;17.95;72.89;99474.88;213806;1277;140097;-62
2022/06/07 20:53:45;;;;;;;13.20;8.70;;;;;;;17.98;73.19;99476.99;213464;1277;142499;-63
2022/06/07 20:58:51;;;;;;;11.40;8.40;;;;;;;17.95;73.25;99473.35;213423;1277;140088;-66
2022/06/07 21:03:56;;;;;;;9.60;8.30;;;;;;;17.89;73.24;99469.44;213950;1277;141888;-64
2022/06/07 21:09:00;;;;;;;8.30;7.10;;;;;;;17.81;73.34;99463.91;213665;1277;140311;-62
2022/06/07 21:14:04;;;;;;;9.40;8.70;;;;;;;17.76;73.54;99459.02;213821;1277;139674;-64
2022/06/07 21:19:08;;;;;;;9.60;8.80;;;;;;;17.71;73.81;99462.54;213729;1277;139675;-63
2022/06/07 21:24:13;;;;;;;9.20;8.30;;;;;;;17.69;73.82;99472.23;214087;1277;139584;-64
2022/06/07 21:29:19;;;;;;;11.90;8.00;;;;;;;17.63;73.91;99480.14;214404;1277;140384;-64
2022/06/07 21:34:25;;;;;;;8.10;7.40;;;;;;;17.55;74.09;99502.20;212996;1277;140330;-62
2022/06/07 21:39:30;;;;;;;8.60;7.40;;;;;;;17.34;74.19;99556.45;213772;1277;140407;-60
2022/06/07 21:44:34;;;;;;;5.70;5.20;;;;;;;16.93;74.81;99574.91;214388;1277;141190;-62
2022/06/07 21:49:38;;;;;;;6.90;5.90;;;;;;;16.59;75.51;99572.68;214830;1276;140383;-62
2022/06/07 21:54:43;;;;;;;7.60;6.20;;;;;;;16.49;76.11;99549.23;214251;1277;140339;-63
2022/06/07 21:59:50;;;;;;;6.50;5.90;;;;;;;16.62;76.53;99533.52;215642;1277;141594;-63
2022/06/07 22:04:54;;;;;;;8.20;6.00;;;;;;;16.75;76.50;99524.75;215455;1277;140062;-66
2022/06/07 22:09:59;;;;;;;10.60;5.80;;;;;;;16.85;76.50;99515.13;215225;1277;140628;-68
2022/06/07 22:15:06;;;;;;;6.10;5.50;;;;;;;16.93;76.69;99508.72;215692;1276;140128;-64
2022/06/07 22:20:11;;;;;;;9.90;5.70;;;;;;;17.01;76.65;99500.15;214883;1277;140496;-64
2022/06/07 22:25:16;;;;;;;6.70;4.90;;;;;;;17.05;76.65;99502.43;215038;1277;140022;-62
2022/06/07 22:30:22;;;;;;;10.30;6.90;;;;;;;17.07;76.72;99506.08;214591;1277;139711;-63
2022/06/07 22:35:27;;;;;;;10.70;6.40;;;;;;;17.14;76.74;99503.31;214200;1277;141570;-62
2022/06/07 22:40:32;;;;;;;7.40;6.70;;;;;;;17.16;76.79;99500.38;213584;1277;140876;-62
2022/06/07 22:45:39;;;;;;;16.50;8.20;;;;;;;17.13;76.75;99489.15;213377;1277;164150;-62
2022/06/07 22:50:44;;;;;;;8.30;7.50;;;;;;;17.08;76.77;99491.54;213346;1277;141772;-61
2022/06/07 22:55:53;;;;;;;8.70;7.90;;;;;;;17.05;76.98;99493.11;213113;1277;140997;-62
2022/06/07 23:01:07;;;;;;;8.60;6.40;;;;;;;17.06;77.04;99492.02;213592;1277;140574;-62
2022/06/07 23:06:17;;;;;;;16.60;9.50;;;;;;;17.06;77.22;99482.60;213084;1277;141432;-63
2022/06/07 23:11:23;;;;;;;10.80;9.70;;;;;;;17.07;77.40;99480.17;214528;1274;139297;-63
2022/06/07 23:21:51;;;;;;;14.60;9.20;;;;;;;17.15;77.47;99474.64;214095;1274;139494;-63
2022/06/07 23:26:56;;;;;;;9.60;8.00;;;;;;;17.16;77.29;99474.02;213332;1274;140039;-64
2022/06/07 23:32:01;;;;;;;9.70;8.40;;;;;;;17.16;77.19;99474.14;213395;1274;139858;-64
2022/06/07 23:37:10;;;;;;;9.80;8.80;;;;;;;17.09;77.16;99477.40;214161;1277;139444;-64
2022/06/07 23:42:16;;;;;;;9.70;8.40;;;;;;;17.02;77.16;99464.70;214234;1275;140126;-63
2022/06/07 23:47:44;;;;;;;10.90;9.10;;;;;;;16.97;77.31;99456.02;214399;1274;140224;-63
2022/06/07 23:52:56;;;;;;;10.60;7.60;;;;;;;16.96;77.35;99448.65;215260;1276;141041;-63
2022/06/07 23:58:01;;;;;;;8.20;7.40;;;;;;;16.96;77.37;99444.17;215308;1274;140273;-63
